sensor_id;sensor_type;location;lat;lon;timestamp;P1;durP1;ratioP1;P2;durP2;ratioP2
73569;SDS011;61850;54.980;73.298;2022-07-23T00:01:44;7.32;;;3.72;;
73569;SDS011;61850;54.980;73.298;2022-07-23T00:04:10;8.20;;;4.22;;
73569;SDS011;61850;54.980;73.298;2022-07-23T00:06:36;10.35;;;4.03;;
73569;SDS011;61850;54.980;73.298;2022-07-23T00:09:02;10.85;;;3.85;;
73569;SDS011;61850;54.980;73.298;2022-07-23T00:11:38;9.13;;;3.97;;
73569;SDS011;61850;54.980;73.298;2022-07-23T00:14:15;9.30;;;4.38;;
73569;SDS011;61850;54.980;73.298;2022-07-23T00:16:42;8.05;;;3.83;;
73569;SDS011;61850;54.980;73.298;2022-07-23T00:19:08;8.25;;;4.18;;
73569;SDS011;61850;54.980;73.298;2022-07-23T00:21:34;8.32;;;4.20;;
73569;SDS011;61850;54.980;73.298;2022-07-23T00:24:00;9.15;;;3.80;;
73569;SDS011;61850;54.980;73.298;2022-07-23T00:50:50;9.10;;;3.75;;
73569;SDS011;61850;54.980;73.298;2022-07-23T00:53:17;7.72;;;3.65;;
73569;SDS011;61850;54.980;73.298;2022-07-23T00:55:43;8.68;;;4.05;;
73569;SDS011;61850;54.980;73.298;2022-07-23T00:58:09;9.77;;;4.10;;
73569;SDS011;61850;54.980;73.298;2022-07-23T01:00:35;9.23;;;3.95;;
73569;SDS011;61850;54.980;73.298;2022-07-23T01:03:02;6.97;;;3.90;;
73569;SDS011;61850;54.980;73.298;2022-07-23T01:17:39;10.70;;;4.20;;
73569;SDS011;61850;54.980;73.298;2022-07-23T01:20:16;8.57;;;4.28;;
73569;SDS011;61850;54.980;73.298;2022-07-23T01:22:42;9.18;;;4.20;;
73569;SDS011;61850;54.980;73.298;2022-07-23T01:25:14;8.63;;;5.03;;
73569;SDS011;61850;54.980;73.298;2022-07-23T01:27:50;9.63;;;4.95;;
73569;SDS011;61850;54.980;73.298;2022-07-23T01:30:18;11.48;;;4.47;;
73569;SDS011;61850;54.980;73.298;2022-07-23T01:32:53;13.63;;;5.07;;
73569;SDS011;61850;54.980;73.298;2022-07-23T01:35:23;7.70;;;3.92;;
73569;SDS011;61850;54.980;73.298;2022-07-23T01:37:53;12.98;;;4.85;;
73569;SDS011;61850;54.980;73.298;2022-07-23T01:40:20;9.38;;;3.95;;
73569;SDS011;61850;54.980;73.298;2022-07-23T01:42:47;10.48;;;4.05;;
73569;SDS011;61850;54.980;73.298;2022-07-23T01:45:14;8.70;;;4.40;;
73569;SDS011;61850;54.980;73.298;2022-07-23T01:47:55;13.38;;;4.55;;
73569;SDS011;61850;54.980;73.298;2022-07-23T01:50:21;8.93;;;4.30;;
73569;SDS011;61850;54.980;73.298;2022-07-23T01:56:35;10.80;;;4.50;;
73569;SDS011;61850;54.980;73.298;2022-07-23T01:59:17;11.73;;;4.30;;
73569;SDS011;61850;54.980;73.298;2022-07-23T02:01:43;14.00;;;4.60;;
73569;SDS011;61850;54.980;73.298;2022-07-23T02:04:20;11.13;;;5.00;;
73569;SDS011;61850;54.980;73.298;2022-07-23T02:06:47;12.52;;;4.90;;
73569;SDS011;61850;54.980;73.298;2022-07-23T02:09:14;11.95;;;4.60;;
73569;SDS011;61850;54.980;73.298;2022-07-23T02:11:49;17.52;;;4.88;;
73569;SDS011;61850;54.980;73.298;2022-07-23T02:14:28;10.43;;;4.70;;
73569;SDS011;61850;54.980;73.298;2022-07-23T02:16:54;11.75;;;4.60;;
73569;SDS011;61850;54.980;73.298;2022-07-23T02:19:21;18.80;;;5.25;;
73569;SDS011;61850;54.980;73.298;2022-07-23T02:21:52;13.02;;;4.82;;
73569;SDS011;61850;54.980;73.298;2022-07-23T02:24:20;13.98;;;5.07;;
73569;SDS011;61850;54.980;73.298;2022-07-23T02:26:48;10.40;;;4.57;;
73569;SDS011;61850;54.980;73.298;2022-07-23T02:29:14;11.52;;;4.50;;
73569;SDS011;61850;54.980;73.298;2022-07-23T02:31:41;14.07;;;5.03;;
73569;SDS011;61850;54.980;73.298;2022-07-23T02:34:07;12.27;;;4.40;;
73569;SDS011;61850;54.980;73.298;2022-07-23T02:36:48;17.73;;;4.95;;
73569;SDS011;61850;54.980;73.298;2022-07-23T02:39:17;7.93;;;4.00;;
73569;SDS011;61850;54.980;73.298;2022-07-23T02:41:44;9.52;;;3.78;;
73569;SDS011;61850;54.980;73.298;2022-07-23T02:44:16;12.98;;;4.50;;
73569;SDS011;61850;54.980;73.298;2022-07-23T02:46:46;11.88;;;4.05;;
73569;SDS011;61850;54.980;73.298;2022-07-23T02:49:15;9.40;;;4.03;;
73569;SDS011;61850;54.980;73.298;2022-07-23T02:51:41;11.30;;;4.18;;
73569;SDS011;61850;54.980;73.298;2022-07-23T02:54:08;7.38;;;3.90;;
73569;SDS011;61850;54.980;73.298;2022-07-23T02:56:35;7.63;;;4.07;;
73569;SDS011;61850;54.980;73.298;2022-07-23T02:59:06;7.10;;;4.07;;
73569;SDS011;61850;54.980;73.298;2022-07-23T03:01:33;12.73;;;4.00;;
73569;SDS011;61850;54.980;73.298;2022-07-23T03:04:09;12.55;;;4.40;;
73569;SDS011;61850;54.980;73.298;2022-07-23T03:06:47;6.40;;;4.20;;
73569;SDS011;61850;54.980;73.298;2022-07-23T03:09:14;14.13;;;4.20;;
73569;SDS011;61850;54.980;73.298;2022-07-23T03:11:41;12.60;;;4.57;;
73569;SDS011;61850;54.980;73.298;2022-07-23T03:14:08;11.63;;;4.82;;
73569;SDS011;61850;54.980;73.298;2022-07-23T03:16:35;8.50;;;4.35;;
73569;SDS011;61850;54.980;73.298;2022-07-23T03:19:02;14.50;;;6.05;;
73569;SDS011;61850;54.980;73.298;2022-07-23T03:21:30;11.43;;;4.75;;
73569;SDS011;61850;54.980;73.298;2022-07-23T03:23:57;9.93;;;5.07;;
73569;SDS011;61850;54.980;73.298;2022-07-23T03:26:32;10.57;;;5.20;;
73569;SDS011;61850;54.980;73.298;2022-07-23T03:28:59;10.93;;;5.20;;
73569;SDS011;61850;54.980;73.298;2022-07-23T03:31:28;9.93;;;4.63;;
73569;SDS011;61850;54.980;73.298;2022-07-23T03:33:56;12.32;;;4.68;;
73569;SDS011;61850;54.980;73.298;2022-07-23T03:36:24;12.05;;;5.10;;
73569;SDS011;61850;54.980;73.298;2022-07-23T03:38:59;7.60;;;4.10;;
73569;SDS011;61850;54.980;73.298;2022-07-23T03:41:27;9.80;;;4.03;;
73569;SDS011;61850;54.980;73.298;2022-07-23T03:43:53;9.73;;;4.03;;
73569;SDS011;61850;54.980;73.298;2022-07-23T03:46:20;8.50;;;4.45;;
73569;SDS011;61850;54.980;73.298;2022-07-23T03:48:46;7.22;;;3.90;;
73569;SDS011;61850;54.980;73.298;2022-07-23T03:51:13;8.68;;;4.38;;
73569;SDS011;61850;54.980;73.298;2022-07-23T03:53:47;9.07;;;4.82;;
73569;SDS011;61850;54.980;73.298;2022-07-23T03:56:16;11.57;;;5.85;;
73569;SDS011;61850;54.980;73.298;2022-07-23T03:58:43;8.70;;;5.18;;
73569;SDS011;61850;54.980;73.298;2022-07-23T04:01:10;11.23;;;5.18;;
73569;SDS011;61850;54.980;73.298;2022-07-23T04:03:37;13.18;;;5.82;;
73569;SDS011;61850;54.980;73.298;2022-07-23T04:06:04;9.57;;;5.18;;
73569;SDS011;61850;54.980;73.298;2022-07-23T04:08:30;15.30;;;6.88;;
73569;SDS011;61850;54.980;73.298;2022-07-23T04:13:54;11.20;;;5.65;;
73569;SDS011;61850;54.980;73.298;2022-07-23T04:16:45;10.20;;;4.45;;
73569;SDS011;61850;54.980;73.298;2022-07-23T04:19:12;9.70;;;4.07;;
73569;SDS011;61850;54.980;73.298;2022-07-23T04:21:57;9.25;;;4.25;;
73569;SDS011;61850;54.980;73.298;2022-07-23T04:24:29;7.85;;;3.75;;
73569;SDS011;61850;54.980;73.298;2022-07-23T04:26:59;9.27;;;4.75;;
73569;SDS011;61850;54.980;73.298;2022-07-23T04:29:25;11.00;;;7.55;;
73569;SDS011;61850;54.980;73.298;2022-07-23T04:31:56;10.68;;;6.10;;
73569;SDS011;61850;54.980;73.298;2022-07-23T04:34:23;8.65;;;4.45;;
73569;SDS011;61850;54.980;73.298;2022-07-23T04:36:58;6.78;;;4.35;;
73569;SDS011;61850;54.980;73.298;2022-07-23T04:39:25;6.82;;;4.55;;
73569;SDS011;61850;54.980;73.298;2022-07-23T04:41:52;7.43;;;4.13;;
73569;SDS011;61850;54.980;73.298;2022-07-23T04:44:19;6.05;;;3.78;;
73569;SDS011;61850;54.980;73.298;2022-07-23T04:46:57;8.60;;;3.70;;
73569;SDS011;61850;54.980;73.298;2022-07-23T04:49:28;6.40;;;3.97;;
73569;SDS011;61850;54.980;73.298;2022-07-23T04:51:55;9.10;;;3.83;;
73569;SDS011;61850;54.980;73.298;2022-07-23T04:54:22;5.53;;;3.95;;
73569;SDS011;61850;54.980;73.298;2022-07-23T04:56:49;7.93;;;3.78;;
73569;SDS011;61850;54.980;73.298;2022-07-23T04:59:22;6.93;;;4.20;;
73569;SDS011;61850;54.980;73.298;2022-07-23T05:01:54;7.23;;;4.00;;
73569;SDS011;61850;54.980;73.298;2022-07-23T05:04:32;7.30;;;4.60;;
73569;SDS011;61850;54.980;73.298;2022-07-23T05:06:59;8.18;;;5.70;;
73569;SDS011;61850;54.980;73.298;2022-07-23T05:09:35;7.13;;;4.00;;
73569;SDS011;61850;54.980;73.298;2022-07-23T05:12:06;5.60;;;3.67;;
73569;SDS011;61850;54.980;73.298;2022-07-23T05:14:35;6.53;;;3.78;;
73569;SDS011;61850;54.980;73.298;2022-07-23T05:17:02;5.38;;;3.40;;
73569;SDS011;61850;54.980;73.298;2022-07-23T05:19:29;5.35;;;3.60;;
73569;SDS011;61850;54.980;73.298;2022-07-23T05:21:56;10.23;;;3.75;;
73569;SDS011;61850;54.980;73.298;2022-07-23T05:24:23;5.78;;;3.40;;
73569;SDS011;61850;54.980;73.298;2022-07-23T05:26:51;8.13;;;3.55;;
73569;SDS011;61850;54.980;73.298;2022-07-23T05:29:20;7.75;;;3.40;;
73569;SDS011;61850;54.980;73.298;2022-07-23T05:31:46;6.40;;;3.80;;
73569;SDS011;61850;54.980;73.298;2022-07-23T05:34:13;6.38;;;3.08;;
73569;SDS011;61850;54.980;73.298;2022-07-23T05:36:46;5.00;;;3.33;;
73569;SDS011;61850;54.980;73.298;2022-07-23T05:39:15;6.05;;;3.55;;
73569;SDS011;61850;54.980;73.298;2022-07-23T05:41:43;5.63;;;3.40;;
73569;SDS011;61850;54.980;73.298;2022-07-23T05:44:10;6.05;;;3.65;;
73569;SDS011;61850;54.980;73.298;2022-07-23T05:46:49;7.70;;;3.53;;
73569;SDS011;61850;54.980;73.298;2022-07-23T05:49:20;6.78;;;3.88;;
73569;SDS011;61850;54.980;73.298;2022-07-23T05:52:11;6.93;;;3.83;;
73569;SDS011;61850;54.980;73.298;2022-07-23T05:54:56;4.82;;;3.40;;
73569;SDS011;61850;54.980;73.298;2022-07-23T05:57:23;7.05;;;3.42;;
73569;SDS011;61850;54.980;73.298;2022-07-23T05:59:50;7.25;;;3.70;;
73569;SDS011;61850;54.980;73.298;2022-07-23T06:02:16;7.07;;;3.90;;
73569;SDS011;61850;54.980;73.298;2022-07-23T06:04:42;6.85;;;3.70;;
73569;SDS011;61850;54.980;73.298;2022-07-23T06:07:29;8.32;;;3.90;;
73569;SDS011;61850;54.980;73.298;2022-07-23T06:09:55;7.70;;;3.95;;
73569;SDS011;61850;54.980;73.298;2022-07-23T06:12:23;6.85;;;3.75;;
73569;SDS011;61850;54.980;73.298;2022-07-23T06:14:51;7.47;;;3.80;;
73569;SDS011;61850;54.980;73.298;2022-07-23T06:17:18;9.10;;;4.18;;
73569;SDS011;61850;54.980;73.298;2022-07-23T06:19:47;7.38;;;3.38;;
73569;SDS011;61850;54.980;73.298;2022-07-23T06:22:22;7.32;;;4.40;;
73569;SDS011;61850;54.980;73.298;2022-07-23T06:25:02;11.70;;;4.50;;
73569;SDS011;61850;54.980;73.298;2022-07-23T06:27:31;5.82;;;3.78;;
73569;SDS011;61850;54.980;73.298;2022-07-23T06:29:58;9.38;;;4.32;;
73569;SDS011;61850;54.980;73.298;2022-07-23T06:32:26;6.55;;;3.88;;
73569;SDS011;61850;54.980;73.298;2022-07-23T06:34:52;10.60;;;4.07;;
73569;SDS011;61850;54.980;73.298;2022-07-23T06:37:20;7.40;;;4.18;;
73569;SDS011;61850;54.980;73.298;2022-07-23T06:39:47;6.70;;;4.43;;
73569;SDS011;61850;54.980;73.298;2022-07-23T06:42:14;7.07;;;4.07;;
73569;SDS011;61850;54.980;73.298;2022-07-23T06:44:45;6.43;;;4.20;;
73569;SDS011;61850;54.980;73.298;2022-07-23T06:47:14;6.65;;;4.03;;
73569;SDS011;61850;54.980;73.298;2022-07-23T06:49:41;7.90;;;3.72;;
73569;SDS011;61850;54.980;73.298;2022-07-23T06:52:07;5.38;;;3.67;;
73569;SDS011;61850;54.980;73.298;2022-07-23T06:54:35;5.50;;;3.83;;
73569;SDS011;61850;54.980;73.298;2022-07-23T06:57:02;8.90;;;4.30;;
73569;SDS011;61850;54.980;73.298;2022-07-23T06:59:29;6.20;;;3.92;;
73569;SDS011;61850;54.980;73.298;2022-07-23T07:02:01;7.18;;;3.70;;
73569;SDS011;61850;54.980;73.298;2022-07-23T07:04:27;8.73;;;3.40;;
73569;SDS011;61850;54.980;73.298;2022-07-23T07:06:53;5.60;;;3.47;;
73569;SDS011;61850;54.980;73.298;2022-07-23T07:09:20;4.57;;;3.20;;
73569;SDS011;61850;54.980;73.298;2022-07-23T07:11:46;7.20;;;3.30;;
73569;SDS011;61850;54.980;73.298;2022-07-23T07:14:12;6.50;;;3.30;;
73569;SDS011;61850;54.980;73.298;2022-07-23T07:16:38;5.80;;;3.30;;
73569;SDS011;61850;54.980;73.298;2022-07-23T07:19:06;6.80;;;2.95;;
73569;SDS011;61850;54.980;73.298;2022-07-23T07:21:36;4.85;;;3.25;;
73569;SDS011;61850;54.980;73.298;2022-07-23T07:24:05;4.65;;;3.42;;
73569;SDS011;61850;54.980;73.298;2022-07-23T07:26:32;5.80;;;3.60;;
73569;SDS011;61850;54.980;73.298;2022-07-23T07:28:58;6.57;;;3.60;;
73569;SDS011;61850;54.980;73.298;2022-07-23T07:31:27;7.60;;;3.45;;
73569;SDS011;61850;54.980;73.298;2022-07-23T07:33:53;7.60;;;3.17;;
73569;SDS011;61850;54.980;73.298;2022-07-23T07:36:22;11.77;;;3.83;;
73569;SDS011;61850;54.980;73.298;2022-07-23T07:38:59;5.53;;;3.42;;
73569;SDS011;61850;54.980;73.298;2022-07-23T07:41:31;10.65;;;3.78;;
73569;SDS011;61850;54.980;73.298;2022-07-23T07:43:57;8.15;;;3.75;;
73569;SDS011;61850;54.980;73.298;2022-07-23T07:46:24;5.85;;;3.65;;
73569;SDS011;61850;54.980;73.298;2022-07-23T07:48:53;7.45;;;4.13;;
73569;SDS011;61850;54.980;73.298;2022-07-23T08:21:39;7.07;;;4.43;;
73569;SDS011;61850;54.980;73.298;2022-07-23T08:24:07;7.05;;;4.00;;
73569;SDS011;61850;54.980;73.298;2022-07-23T08:26:35;8.02;;;4.55;;
73569;SDS011;61850;54.980;73.298;2022-07-23T08:29:05;9.10;;;4.53;;
73569;SDS011;61850;54.980;73.298;2022-07-23T08:31:32;6.93;;;4.40;;
73569;SDS011;61850;54.980;73.298;2022-07-23T08:58:25;16.00;;;5.45;;
73569;SDS011;61850;54.980;73.298;2022-07-23T09:00:51;15.65;;;5.40;;
73569;SDS011;61850;54.980;73.298;2022-07-23T09:09:30;12.13;;;4.90;;
73569;SDS011;61850;54.980;73.298;2022-07-23T09:12:03;14.27;;;5.80;;
73569;SDS011;61850;54.980;73.298;2022-07-23T09:17:22;13.30;;;4.90;;
73569;SDS011;61850;54.980;73.298;2022-07-23T09:20:07;11.25;;;5.20;;
73569;SDS011;61850;54.980;73.298;2022-07-23T09:22:50;13.32;;;4.80;;
73569;SDS011;61850;54.980;73.298;2022-07-23T09:25:17;6.43;;;3.75;;
73569;SDS011;61850;54.980;73.298;2022-07-23T09:30:16;10.10;;;4.03;;
73569;SDS011;61850;54.980;73.298;2022-07-23T09:38:17;15.50;;;4.90;;
73569;SDS011;61850;54.980;73.298;2022-07-23T09:43:35;15.60;;;5.18;;
73569;SDS011;61850;54.980;73.298;2022-07-23T09:46:19;19.10;;;5.32;;
73569;SDS011;61850;54.980;73.298;2022-07-23T09:48:51;29.70;;;6.32;;
73569;SDS011;61850;54.980;73.298;2022-07-23T09:51:22;20.60;;;6.47;;
73569;SDS011;61850;54.980;73.298;2022-07-23T09:53:56;32.35;;;6.18;;
73569;SDS011;61850;54.980;73.298;2022-07-23T09:56:23;16.75;;;5.35;;
73569;SDS011;61850;54.980;73.298;2022-07-23T09:58:53;17.60;;;5.03;;
73569;SDS011;61850;54.980;73.298;2022-07-23T10:01:38;11.30;;;4.80;;
73569;SDS011;61850;54.980;73.298;2022-07-23T10:04:05;11.95;;;5.30;;
73569;SDS011;61850;54.980;73.298;2022-07-23T10:07:08;16.77;;;5.88;;
73569;SDS011;61850;54.980;73.298;2022-07-23T10:09:54;24.00;;;6.47;;
73569;SDS011;61850;54.980;73.298;2022-07-23T10:12:43;20.58;;;5.72;;
73569;SDS011;61850;54.980;73.298;2022-07-23T10:15:16;12.43;;;4.97;;
73569;SDS011;61850;54.980;73.298;2022-07-23T10:17:42;18.02;;;5.53;;
73569;SDS011;61850;54.980;73.298;2022-07-23T10:20:09;11.95;;;5.00;;
73569;SDS011;61850;54.980;73.298;2022-07-23T10:22:40;12.75;;;4.72;;
73569;SDS011;61850;54.980;73.298;2022-07-23T10:30:49;13.60;;;4.47;;
73569;SDS011;61850;54.980;73.298;2022-07-23T10:36:22;22.17;;;5.22;;
73569;SDS011;61850;54.980;73.298;2022-07-23T10:38:57;14.88;;;4.25;;
73569;SDS011;61850;54.980;73.298;2022-07-23T10:41:31;14.65;;;4.50;;
73569;SDS011;61850;54.980;73.298;2022-07-23T10:46:58;17.83;;;5.20;;
73569;SDS011;61850;54.980;73.298;2022-07-23T10:49:47;15.32;;;4.80;;
73569;SDS011;61850;54.980;73.298;2022-07-23T10:54:40;13.45;;;4.05;;
73569;SDS011;61850;54.980;73.298;2022-07-23T10:57:12;8.40;;;3.38;;
73569;SDS011;61850;54.980;73.298;2022-07-23T11:02:40;6.40;;;3.72;;
73569;SDS011;61850;54.980;73.298;2022-07-23T11:05:16;8.05;;;3.10;;
73569;SDS011;61850;54.980;73.298;2022-07-23T11:10:34;7.53;;;4.13;;
73569;SDS011;61850;54.980;73.298;2022-07-23T11:13:41;10.98;;;4.07;;
73569;SDS011;61850;54.980;73.298;2022-07-23T11:16:06;12.95;;;4.25;;
73569;SDS011;61850;54.980;73.298;2022-07-23T11:18:56;13.00;;;3.70;;
73569;SDS011;61850;54.980;73.298;2022-07-23T11:32:05;9.25;;;4.40;;
73569;SDS011;61850;54.980;73.298;2022-07-23T11:34:32;9.32;;;4.10;;
73569;SDS011;61850;54.980;73.298;2022-07-23T11:37:00;11.60;;;4.25;;
73569;SDS011;61850;54.980;73.298;2022-07-23T11:39:28;10.30;;;3.95;;
73569;SDS011;61850;54.980;73.298;2022-07-23T11:41:56;21.30;;;4.40;;
73569;SDS011;61850;54.980;73.298;2022-07-23T11:44:26;21.33;;;4.22;;
73569;SDS011;61850;54.980;73.298;2022-07-23T11:46:57;19.88;;;4.93;;
73569;SDS011;61850;54.980;73.298;2022-07-23T11:49:34;21.27;;;5.05;;
73569;SDS011;61850;54.980;73.298;2022-07-23T11:57:18;9.93;;;3.58;;
73569;SDS011;61850;54.980;73.298;2022-07-23T11:59:56;9.55;;;3.40;;
73569;SDS011;61850;54.980;73.298;2022-07-23T12:02:26;10.23;;;3.10;;
73569;SDS011;61850;54.980;73.298;2022-07-23T12:04:53;11.60;;;3.22;;
73569;SDS011;61850;54.980;73.298;2022-07-23T12:10:29;12.10;;;3.40;;
73569;SDS011;61850;54.980;73.298;2022-07-23T12:13:09;7.63;;;3.10;;
73569;SDS011;61850;54.980;73.298;2022-07-23T12:15:47;5.32;;;3.10;;
73569;SDS011;61850;54.980;73.298;2022-07-23T12:18:18;11.75;;;3.20;;
73569;SDS011;61850;54.980;73.298;2022-07-23T12:20:47;5.03;;;2.70;;
73569;SDS011;61850;54.980;73.298;2022-07-23T12:23:17;4.90;;;2.42;;
73569;SDS011;61850;54.980;73.298;2022-07-23T12:25:45;5.35;;;2.85;;
73569;SDS011;61850;54.980;73.298;2022-07-23T12:28:13;4.97;;;2.85;;
73569;SDS011;61850;54.980;73.298;2022-07-23T12:30:43;4.22;;;2.60;;
73569;SDS011;61850;54.980;73.298;2022-07-23T12:42:12;7.22;;;3.00;;
73569;SDS011;61850;54.980;73.298;2022-07-23T13:27:19;5.78;;;3.85;;
73569;SDS011;61850;54.980;73.298;2022-07-23T13:30:00;5.50;;;3.47;;
73569;SDS011;61850;54.980;73.298;2022-07-23T13:32:33;9.80;;;3.72;;
73569;SDS011;61850;54.980;73.298;2022-07-23T13:35:02;6.30;;;3.67;;
73569;SDS011;61850;54.980;73.298;2022-07-23T13:37:34;8.32;;;3.33;;
73569;SDS011;61850;54.980;73.298;2022-07-23T13:40:01;5.75;;;3.42;;
73569;SDS011;61850;54.980;73.298;2022-07-23T13:42:33;5.30;;;2.88;;
73569;SDS011;61850;54.980;73.298;2022-07-23T13:45:00;7.32;;;3.28;;
73569;SDS011;61850;54.980;73.298;2022-07-23T13:47:31;5.38;;;3.28;;
73569;SDS011;61850;54.980;73.298;2022-07-23T13:49:57;5.10;;;2.92;;
73569;SDS011;61850;54.980;73.298;2022-07-23T13:52:24;8.40;;;3.50;;
73569;SDS011;61850;54.980;73.298;2022-07-23T13:54:50;7.88;;;3.17;;
73569;SDS011;61850;54.980;73.298;2022-07-23T13:57:17;10.00;;;3.70;;
73569;SDS011;61850;54.980;73.298;2022-07-23T13:59:49;5.72;;;3.08;;
73569;SDS011;61850;54.980;73.298;2022-07-23T14:02:15;9.02;;;3.25;;
73569;SDS011;61850;54.980;73.298;2022-07-23T14:04:53;6.35;;;2.95;;
73569;SDS011;61850;54.980;73.298;2022-07-23T14:07:20;8.20;;;3.15;;
73569;SDS011;61850;54.980;73.298;2022-07-23T14:09:48;5.15;;;2.65;;
73569;SDS011;61850;54.980;73.298;2022-07-23T14:12:15;5.78;;;2.90;;
73569;SDS011;61850;54.980;73.298;2022-07-23T14:14:52;11.02;;;3.33;;
73569;SDS011;61850;54.980;73.298;2022-07-23T14:17:28;8.35;;;3.38;;
73569;SDS011;61850;54.980;73.298;2022-07-23T14:20:01;8.35;;;2.75;;
73569;SDS011;61850;54.980;73.298;2022-07-23T14:22:27;8.48;;;3.20;;
73569;SDS011;61850;54.980;73.298;2022-07-23T14:24:54;7.40;;;2.70;;
73569;SDS011;61850;54.980;73.298;2022-07-23T14:27:27;6.72;;;2.47;;
73569;SDS011;61850;54.980;73.298;2022-07-23T14:29:55;7.65;;;3.05;;
73569;SDS011;61850;54.980;73.298;2022-07-23T14:32:25;6.45;;;3.10;;
73569;SDS011;61850;54.980;73.298;2022-07-23T14:34:51;8.15;;;3.00;;
73569;SDS011;61850;54.980;73.298;2022-07-23T14:37:23;9.10;;;3.40;;
73569;SDS011;61850;54.980;73.298;2022-07-23T14:39:50;5.05;;;2.90;;
73569;SDS011;61850;54.980;73.298;2022-07-23T14:42:17;6.65;;;2.65;;
73569;SDS011;61850;54.980;73.298;2022-07-23T14:44:44;6.10;;;2.80;;
73569;SDS011;61850;54.980;73.298;2022-07-23T14:47:11;6.65;;;2.90;;
73569;SDS011;61850;54.980;73.298;2022-07-23T14:49:37;8.95;;;3.13;;
73569;SDS011;61850;54.980;73.298;2022-07-23T14:52:04;5.32;;;2.63;;
73569;SDS011;61850;54.980;73.298;2022-07-23T14:54:35;7.30;;;2.90;;
73569;SDS011;61850;54.980;73.298;2022-07-23T14:57:04;7.43;;;3.92;;
73569;SDS011;61850;54.980;73.298;2022-07-23T14:59:37;5.45;;;3.47;;
73569;SDS011;61850;54.980;73.298;2022-07-23T15:02:04;7.40;;;3.85;;
73569;SDS011;61850;54.980;73.298;2022-07-23T15:04:30;7.15;;;3.90;;
73569;SDS011;61850;54.980;73.298;2022-07-23T15:06:58;8.15;;;4.70;;
73569;SDS011;61850;54.980;73.298;2022-07-23T15:09:25;6.40;;;3.72;;
73569;SDS011;61850;54.980;73.298;2022-07-23T15:12:06;7.70;;;3.60;;
73569;SDS011;61850;54.980;73.298;2022-07-23T15:14:33;7.15;;;3.47;;
73569;SDS011;61850;54.980;73.298;2022-07-23T15:17:00;7.35;;;3.50;;
73569;SDS011;61850;54.980;73.298;2022-07-23T15:22:28;6.82;;;3.45;;
73569;SDS011;61850;54.980;73.298;2022-07-23T15:24:55;5.25;;;3.38;;
73569;SDS011;61850;54.980;73.298;2022-07-23T15:27:21;10.20;;;4.28;;
73569;SDS011;61850;54.980;73.298;2022-07-23T15:32:57;10.15;;;3.90;;
73569;SDS011;61850;54.980;73.298;2022-07-23T15:35:24;6.63;;;3.70;;
73569;SDS011;61850;54.980;73.298;2022-07-23T15:37:50;9.45;;;4.07;;
73569;SDS011;61850;54.980;73.298;2022-07-23T15:40:16;8.02;;;3.63;;
73569;SDS011;61850;54.980;73.298;2022-07-23T15:42:42;6.70;;;3.70;;
73569;SDS011;61850;54.980;73.298;2022-07-23T15:45:19;7.55;;;3.50;;
73569;SDS011;61850;54.980;73.298;2022-07-23T15:47:49;7.60;;;3.30;;
73569;SDS011;61850;54.980;73.298;2022-07-23T15:50:16;6.88;;;3.65;;
73569;SDS011;61850;54.980;73.298;2022-07-23T15:52:52;8.63;;;3.90;;
73569;SDS011;61850;54.980;73.298;2022-07-23T15:55:19;7.57;;;4.30;;
73569;SDS011;61850;54.980;73.298;2022-07-23T15:57:45;7.60;;;3.88;;
73569;SDS011;61850;54.980;73.298;2022-07-23T16:00:11;9.02;;;3.85;;
73569;SDS011;61850;54.980;73.298;2022-07-23T16:44:22;8.43;;;3.58;;
73569;SDS011;61850;54.980;73.298;2022-07-23T16:46:49;8.55;;;3.83;;
73569;SDS011;61850;54.980;73.298;2022-07-23T16:49:15;10.18;;;3.70;;
73569;SDS011;61850;54.980;73.298;2022-07-23T16:51:41;14.20;;;4.43;;
73569;SDS011;61850;54.980;73.298;2022-07-23T17:00:17;14.15;;;3.90;;
73569;SDS011;61850;54.980;73.298;2022-07-23T17:15:53;8.00;;;3.65;;
73569;SDS011;61850;54.980;73.298;2022-07-23T17:18:20;8.20;;;3.28;;
73569;SDS011;61850;54.980;73.298;2022-07-23T17:20:58;7.28;;;3.20;;
73569;SDS011;61850;54.980;73.298;2022-07-23T17:23:24;8.73;;;3.47;;
73569;SDS011;61850;54.980;73.298;2022-07-23T17:26:01;6.00;;;3.40;;
73569;SDS011;61850;54.980;73.298;2022-07-23T17:28:33;7.45;;;3.42;;
73569;SDS011;61850;54.980;73.298;2022-07-23T17:31:04;7.78;;;3.70;;
73569;SDS011;61850;54.980;73.298;2022-07-23T17:33:42;9.50;;;3.95;;
73569;SDS011;61850;54.980;73.298;2022-07-23T17:36:09;8.75;;;3.83;;
73569;SDS011;61850;54.980;73.298;2022-07-23T17:38:35;8.18;;;4.22;;
73569;SDS011;61850;54.980;73.298;2022-07-23T17:41:11;7.75;;;4.00;;
73569;SDS011;61850;54.980;73.298;2022-07-23T17:53:20;6.55;;;3.55;;
73569;SDS011;61850;54.980;73.298;2022-07-23T18:21:34;7.68;;;3.90;;
73569;SDS011;61850;54.980;73.298;2022-07-23T18:27:05;9.45;;;4.15;;
73569;SDS011;61850;54.980;73.298;2022-07-23T18:53:57;14.80;;;5.93;;
73569;SDS011;61850;54.980;73.298;2022-07-23T19:29:13;12.15;;;5.88;;
73569;SDS011;61850;54.980;73.298;2022-07-23T19:43:51;19.52;;;5.50;;
73569;SDS011;61850;54.980;73.298;2022-07-23T19:46:18;9.82;;;5.00;;
73569;SDS011;61850;54.980;73.298;2022-07-23T19:48:49;10.05;;;5.45;;
73569;SDS011;61850;54.980;73.298;2022-07-23T20:28:00;10.52;;;5.20;;
73569;SDS011;61850;54.980;73.298;2022-07-23T20:30:28;11.38;;;4.75;;
73569;SDS011;61850;54.980;73.298;2022-07-23T20:51:10;7.80;;;4.13;;
73569;SDS011;61850;54.980;73.298;2022-07-23T20:53:36;8.80;;;4.40;;
73569;SDS011;61850;54.980;73.298;2022-07-23T20:56:03;8.45;;;4.63;;
73569;SDS011;61850;54.980;73.298;2022-07-23T21:26:02;6.80;;;4.18;;
73569;SDS011;61850;54.980;73.298;2022-07-23T21:28:36;8.18;;;4.32;;
73569;SDS011;61850;54.980;73.298;2022-07-23T21:34:06;7.03;;;4.05;;
73569;SDS011;61850;54.980;73.298;2022-07-23T21:36:33;8.23;;;4.22;;
73569;SDS011;61850;54.980;73.298;2022-07-23T21:38:59;7.40;;;4.20;;
73569;SDS011;61850;54.980;73.298;2022-07-23T21:41:25;7.28;;;3.65;;
73569;SDS011;61850;54.980;73.298;2022-07-23T21:43:55;10.15;;;4.32;;
73569;SDS011;61850;54.980;73.298;2022-07-23T21:46:27;6.78;;;4.20;;
73569;SDS011;61850;54.980;73.298;2022-07-23T21:48:56;8.02;;;4.18;;
73569;SDS011;61850;54.980;73.298;2022-07-23T21:51:22;8.00;;;4.13;;
73569;SDS011;61850;54.980;73.298;2022-07-23T21:53:48;6.68;;;3.85;;
73569;SDS011;61850;54.980;73.298;2022-07-23T22:02:21;6.72;;;4.00;;
73569;SDS011;61850;54.980;73.298;2022-07-23T22:11:10;10.07;;;4.40;;
73569;SDS011;61850;54.980;73.298;2022-07-23T22:13:37;6.93;;;4.55;;
73569;SDS011;61850;54.980;73.298;2022-07-23T22:16:03;8.05;;;4.45;;
73569;SDS011;61850;54.980;73.298;2022-07-23T22:18:30;7.50;;;4.60;;
73569;SDS011;61850;54.980;73.298;2022-07-23T22:30:05;7.82;;;4.53;;
73569;SDS011;61850;54.980;73.298;2022-07-23T22:32:43;11.52;;;4.80;;
73569;SDS011;61850;54.980;73.298;2022-07-23T22:47:26;9.13;;;5.18;;
73569;SDS011;61850;54.980;73.298;2022-07-23T22:49:52;7.72;;;4.65;;
73569;SDS011;61850;54.980;73.298;2022-07-23T22:52:19;9.70;;;4.97;;
73569;SDS011;61850;54.980;73.298;2022-07-23T22:54:56;9.05;;;4.97;;
73569;SDS011;61850;54.980;73.298;2022-07-23T22:57:23;11.18;;;5.55;;
73569;SDS011;61850;54.980;73.298;2022-07-23T22:59:54;10.45;;;6.05;;
73569;SDS011;61850;54.980;73.298;2022-07-23T23:20:40;11.80;;;8.15;;
73569;SDS011;61850;54.980;73.298;2022-07-23T23:23:06;15.00;;;8.18;;
73569;SDS011;61850;54.980;73.298;2022-07-23T23:25:42;11.20;;;5.90;;
73569;SDS011;61850;54.980;73.298;2022-07-23T23:28:08;11.23;;;5.90;;